KDAY Airport Diagram

We have created a template for each of the higher traffic airports in the vZID airspace. They include KCMH, KCRW, KCVG, KDAY, KIND, KLEX and KSDF. You wil find usefull information including the airport diagram, weather, and specific airport procedures.

KDAY Weather

[Source: ADDS]
METAR
KDAY 241520Z 04008KT 2 1/2SM RA BR BKN005 BKN060 OVC080 07/07 A3014 RMK AO2 SFC VIS 3 P0004 T00720067 =
TAF
KDAY 241509Z 2415/2512 05008KT 4SM -RA OVC012 TEMPO 2415/2418 2SM -RA OVC005 FM241900 09010KT P6SM VCSH OVC022 FM250200 14013KT 5SM -SHRA VCTS SCT012 OVC020CB FM250500 18012G22KT 4SM -SHRA VCTS OVC024CB FM250700 20014G26KT 5SM -SHRA VCTS OVC013CB FM250900 22016G28KT P6SM BKN017 FM251100 25017G25KT P6SM BKN090 =

KDAY Operations

 Calm Wind Configuration is runways 24L/R. This configuration is used up to and including 10kts.

Runway 24L typically departs south and east.

Runway 24R typically departs north and west.

 

JSN Epic template designed by JoomlaShine.com